sensor_id;sensor_type;location;lat;lon;timestamp;temperature;humidity
10722;DHT22;5412;59.450;18.124;2023-04-16T00:02:18;3.10;99.90
10722;DHT22;5412;59.450;18.124;2023-04-16T00:04:45;3.00;99.90
10722;DHT22;5412;59.450;18.124;2023-04-16T00:07:11;3.00;99.90
10722;DHT22;5412;59.450;18.124;2023-04-16T00:09:36;3.00;99.90
10722;DHT22;5412;59.450;18.124;2023-04-16T00:12:02;3.00;99.90
10722;DHT22;5412;59.450;18.124;2023-04-16T00:14:29;3.00;99.90
10722;DHT22;5412;59.450;18.124;2023-04-16T00:16:54;2.90;99.90
10722;DHT22;5412;59.450;18.124;2023-04-16T00:19:20;2.90;99.90
10722;DHT22;5412;59.450;18.124;2023-04-16T00:21:46;2.80;99.90
10722;DHT22;5412;59.450;18.124;2023-04-16T00:24:12;2.90;99.90
10722;DHT22;5412;59.450;18.124;2023-04-16T00:26:37;2.90;99.90
10722;DHT22;5412;59.450;18.124;2023-04-16T00:29:03;2.90;99.90
10722;DHT22;5412;59.450;18.124;2023-04-16T00:31:31;2.70;99.90
10722;DHT22;5412;59.450;18.124;2023-04-16T00:33:58;2.80;99.90
10722;DHT22;5412;59.450;18.124;2023-04-16T00:36:25;2.70;99.90
10722;DHT22;5412;59.450;18.124;2023-04-16T00:38:52;2.70;99.90
10722;DHT22;5412;59.450;18.124;2023-04-16T00:41:18;2.60;99.90
10722;DHT22;5412;59.450;18.124;2023-04-16T00:43:43;2.70;99.90
10722;DHT22;5412;59.450;18.124;2023-04-16T00:46:09;2.70;99.90
10722;DHT22;5412;59.450;18.124;2023-04-16T00:48:37;2.70;99.90
10722;DHT22;5412;59.450;18.124;2023-04-16T00:51:04;2.80;99.90
10722;DHT22;5412;59.450;18.124;2023-04-16T00:53:31;2.70;99.90
10722;DHT22;5412;59.450;18.124;2023-04-16T00:55:57;2.70;99.90
10722;DHT22;5412;59.450;18.124;2023-04-16T00:58:23;2.50;99.90
10722;DHT22;5412;59.450;18.124;2023-04-16T01:00:50;2.50;99.90
10722;DHT22;5412;59.450;18.124;2023-04-16T01:03:16;2.50;99.90
10722;DHT22;5412;59.450;18.124;2023-04-16T01:05:43;2.50;99.90
10722;DHT22;5412;59.450;18.124;2023-04-16T01:08:20;2.50;99.90
10722;DHT22;5412;59.450;18.124;2023-04-16T01:10:46;2.50;99.90
10722;DHT22;5412;59.450;18.124;2023-04-16T01:13:12;2.50;99.90
10722;DHT22;5412;59.450;18.124;2023-04-16T01:15:39;2.50;99.90
10722;DHT22;5412;59.450;18.124;2023-04-16T01:18:15;2.50;99.90
10722;DHT22;5412;59.450;18.124;2023-04-16T01:20:40;2.50;99.90
10722;DHT22;5412;59.450;18.124;2023-04-16T01:23:06;2.50;99.90
10722;DHT22;5412;59.450;18.124;2023-04-16T01:25:32;2.60;99.90
10722;DHT22;5412;59.450;18.124;2023-04-16T01:27:58;2.50;99.90
10722;DHT22;5412;59.450;18.124;2023-04-16T01:30:24;2.40;99.90
10722;DHT22;5412;59.450;18.124;2023-04-16T01:32:50;2.50;99.90
10722;DHT22;5412;59.450;18.124;2023-04-16T01:35:16;2.50;99.90
10722;DHT22;5412;59.450;18.124;2023-04-16T01:37:44;2.50;99.90
10722;DHT22;5412;59.450;18.124;2023-04-16T01:40:10;2.30;99.90
10722;DHT22;5412;59.450;18.124;2023-04-16T01:42:37;2.40;99.90
10722;DHT22;5412;59.450;18.124;2023-04-16T01:45:03;2.40;99.90
10722;DHT22;5412;59.450;18.124;2023-04-16T01:47:29;2.30;99.90
10722;DHT22;5412;59.450;18.124;2023-04-16T01:49:55;2.30;99.90
10722;DHT22;5412;59.450;18.124;2023-04-16T01:52:21;2.30;99.90
10722;DHT22;5412;59.450;18.124;2023-04-16T01:54:48;2.30;99.90
10722;DHT22;5412;59.450;18.124;2023-04-16T01:57:13;2.30;99.90
10722;DHT22;5412;59.450;18.124;2023-04-16T01:59:39;2.20;99.90
10722;DHT22;5412;59.450;18.124;2023-04-16T02:02:08;2.20;99.90
10722;DHT22;5412;59.450;18.124;2023-04-16T02:04:36;2.20;99.90
10722;DHT22;5412;59.450;18.124;2023-04-16T02:07:03;2.20;99.90
10722;DHT22;5412;59.450;18.124;2023-04-16T02:09:30;2.20;99.90
10722;DHT22;5412;59.450;18.124;2023-04-16T02:11:55;2.10;99.90
10722;DHT22;5412;59.450;18.124;2023-04-16T02:14:21;2.10;99.90
10722;DHT22;5412;59.450;18.124;2023-04-16T02:16:50;2.10;99.90
10722;DHT22;5412;59.450;18.124;2023-04-16T02:19:16;2.00;99.90
10722;DHT22;5412;59.450;18.124;2023-04-16T02:21:42;2.00;99.90
10722;DHT22;5412;59.450;18.124;2023-04-16T02:24:08;2.00;99.90
10722;DHT22;5412;59.450;18.124;2023-04-16T02:26:33;2.00;99.90
10722;DHT22;5412;59.450;18.124;2023-04-16T02:28:59;2.00;99.90
10722;DHT22;5412;59.450;18.124;2023-04-16T02:31:25;2.00;99.90
10722;DHT22;5412;59.450;18.124;2023-04-16T02:33:53;1.90;99.90
10722;DHT22;5412;59.450;18.124;2023-04-16T02:36:19;1.90;99.90
10722;DHT22;5412;59.450;18.124;2023-04-16T02:38:44;1.90;99.90
10722;DHT22;5412;59.450;18.124;2023-04-16T02:41:10;1.90;99.90
10722;DHT22;5412;59.450;18.124;2023-04-16T02:43:36;1.90;99.90
10722;DHT22;5412;59.450;18.124;2023-04-16T02:46:02;1.90;99.90
10722;DHT22;5412;59.450;18.124;2023-04-16T02:48:28;1.90;99.90
10722;DHT22;5412;59.450;18.124;2023-04-16T02:50:54;1.90;99.90
10722;DHT22;5412;59.450;18.124;2023-04-16T02:53:20;1.90;99.90
10722;DHT22;5412;59.450;18.124;2023-04-16T02:55:54;2.00;99.90
10722;DHT22;5412;59.450;18.124;2023-04-16T02:58:21;2.00;99.90
10722;DHT22;5412;59.450;18.124;2023-04-16T03:00:48;1.90;99.90
10722;DHT22;5412;59.450;18.124;2023-04-16T03:03:14;2.00;99.90
10722;DHT22;5412;59.450;18.124;2023-04-16T03:05:40;1.90;99.90
10722;DHT22;5412;59.450;18.124;2023-04-16T03:08:06;1.90;99.90
10722;DHT22;5412;59.450;18.124;2023-04-16T03:10:32;1.90;99.90
10722;DHT22;5412;59.450;18.124;2023-04-16T03:12:59;1.90;99.90
10722;DHT22;5412;59.450;18.124;2023-04-16T03:15:25;1.90;99.90
10722;DHT22;5412;59.450;18.124;2023-04-16T03:17:52;1.90;99.90
10722;DHT22;5412;59.450;18.124;2023-04-16T03:20:18;1.90;99.90
10722;DHT22;5412;59.450;18.124;2023-04-16T03:22:45;1.90;99.90
10722;DHT22;5412;59.450;18.124;2023-04-16T03:25:11;1.90;99.90
10722;DHT22;5412;59.450;18.124;2023-04-16T03:27:36;1.90;99.90
10722;DHT22;5412;59.450;18.124;2023-04-16T03:30:05;2.00;99.90
10722;DHT22;5412;59.450;18.124;2023-04-16T03:32:31;1.90;99.90
10722;DHT22;5412;59.450;18.124;2023-04-16T03:34:57;1.90;99.90
10722;DHT22;5412;59.450;18.124;2023-04-16T03:37:23;1.90;99.90
10722;DHT22;5412;59.450;18.124;2023-04-16T03:39:48;1.80;99.90
10722;DHT22;5412;59.450;18.124;2023-04-16T03:42:14;1.90;99.90
10722;DHT22;5412;59.450;18.124;2023-04-16T03:44:40;1.90;99.90
10722;DHT22;5412;59.450;18.124;2023-04-16T03:47:06;1.80;99.90
10722;DHT22;5412;59.450;18.124;2023-04-16T03:49:32;1.80;99.90
10722;DHT22;5412;59.450;18.124;2023-04-16T03:51:58;1.80;99.90
10722;DHT22;5412;59.450;18.124;2023-04-16T03:54:23;1.80;99.90
10722;DHT22;5412;59.450;18.124;2023-04-16T03:56:49;1.80;99.90
10722;DHT22;5412;59.450;18.124;2023-04-16T03:59:17;1.80;99.90
10722;DHT22;5412;59.450;18.124;2023-04-16T04:01:42;1.80;99.90
10722;DHT22;5412;59.450;18.124;2023-04-16T04:04:08;1.80;99.90
10722;DHT22;5412;59.450;18.124;2023-04-16T04:06:35;1.80;99.90
10722;DHT22;5412;59.450;18.124;2023-04-16T04:09:00;1.90;99.90
10722;DHT22;5412;59.450;18.124;2023-04-16T04:11:26;1.80;99.90
10722;DHT22;5412;59.450;18.124;2023-04-16T04:13:52;1.90;99.90
10722;DHT22;5412;59.450;18.124;2023-04-16T04:16:18;1.90;99.90
10722;DHT22;5412;59.450;18.124;2023-04-16T04:18:43;1.90;99.90
10722;DHT22;5412;59.450;18.124;2023-04-16T04:21:09;2.00;99.90
10722;DHT22;5412;59.450;18.124;2023-04-16T04:23:35;2.00;99.90
10722;DHT22;5412;59.450;18.124;2023-04-16T04:26:02;2.10;99.90
10722;DHT22;5412;59.450;18.124;2023-04-16T04:28:30;2.10;99.90
10722;DHT22;5412;59.450;18.124;2023-04-16T04:30:57;2.20;99.90
10722;DHT22;5412;59.450;18.124;2023-04-16T04:33:26;2.20;99.90
10722;DHT22;5412;59.450;18.124;2023-04-16T04:35:53;2.20;99.90
10722;DHT22;5412;59.450;18.124;2023-04-16T04:38:18;2.30;99.90
10722;DHT22;5412;59.450;18.124;2023-04-16T04:40:47;2.30;99.90
10722;DHT22;5412;59.450;18.124;2023-04-16T04:43:13;2.30;99.90
10722;DHT22;5412;59.450;18.124;2023-04-16T04:45:39;2.30;99.90
10722;DHT22;5412;59.450;18.124;2023-04-16T04:48:05;2.40;99.90
10722;DHT22;5412;59.450;18.124;2023-04-16T04:50:31;2.40;99.90
10722;DHT22;5412;59.450;18.124;2023-04-16T04:52:57;2.20;99.90
10722;DHT22;5412;59.450;18.124;2023-04-16T04:55:23;2.30;99.90
10722;DHT22;5412;59.450;18.124;2023-04-16T04:57:49;2.30;99.90
10722;DHT22;5412;59.450;18.124;2023-04-16T05:00:15;2.40;99.90
10722;DHT22;5412;59.450;18.124;2023-04-16T05:02:40;2.30;99.90
10722;DHT22;5412;59.450;18.124;2023-04-16T05:05:07;2.20;99.90
10722;DHT22;5412;59.450;18.124;2023-04-16T05:07:32;2.20;99.90
10722;DHT22;5412;59.450;18.124;2023-04-16T05:09:58;2.10;99.90
10722;DHT22;5412;59.450;18.124;2023-04-16T05:12:24;2.20;99.90
10722;DHT22;5412;59.450;18.124;2023-04-16T05:14:50;2.30;99.90
10722;DHT22;5412;59.450;18.124;2023-04-16T05:17:15;2.40;99.90
10722;DHT22;5412;59.450;18.124;2023-04-16T05:19:41;2.20;99.90
10722;DHT22;5412;59.450;18.124;2023-04-16T05:22:07;2.40;99.90
10722;DHT22;5412;59.450;18.124;2023-04-16T05:24:33;2.40;99.90
10722;DHT22;5412;59.450;18.124;2023-04-16T05:26:58;2.50;99.90
10722;DHT22;5412;59.450;18.124;2023-04-16T05:29:24;2.50;99.90
10722;DHT22;5412;59.450;18.124;2023-04-16T05:31:50;2.60;99.90
10722;DHT22;5412;59.450;18.124;2023-04-16T05:34:16;2.60;99.90
10722;DHT22;5412;59.450;18.124;2023-04-16T05:36:41;2.60;99.90
10722;DHT22;5412;59.450;18.124;2023-04-16T05:39:07;2.70;99.90
10722;DHT22;5412;59.450;18.124;2023-04-16T05:41:33;2.80;99.90
10722;DHT22;5412;59.450;18.124;2023-04-16T05:43:59;2.90;99.90
10722;DHT22;5412;59.450;18.124;2023-04-16T05:46:25;2.90;99.90
10722;DHT22;5412;59.450;18.124;2023-04-16T05:48:51;3.10;99.90
10722;DHT22;5412;59.450;18.124;2023-04-16T05:51:16;3.30;99.90
10722;DHT22;5412;59.450;18.124;2023-04-16T05:53:43;3.30;99.90
10722;DHT22;5412;59.450;18.124;2023-04-16T05:56:09;3.20;99.90
10722;DHT22;5412;59.450;18.124;2023-04-16T05:58:34;3.30;99.90
10722;DHT22;5412;59.450;18.124;2023-04-16T06:01:00;3.40;99.90
10722;DHT22;5412;59.450;18.124;2023-04-16T06:03:26;3.50;99.90
10722;DHT22;5412;59.450;18.124;2023-04-16T06:05:52;3.60;99.90
10722;DHT22;5412;59.450;18.124;2023-04-16T06:08:18;3.50;99.90
10722;DHT22;5412;59.450;18.124;2023-04-16T06:10:46;3.60;99.90
10722;DHT22;5412;59.450;18.124;2023-04-16T06:13:12;3.80;99.90
10722;DHT22;5412;59.450;18.124;2023-04-16T06:15:38;3.80;99.90
10722;DHT22;5412;59.450;18.124;2023-04-16T06:18:04;4.00;99.90
10722;DHT22;5412;59.450;18.124;2023-04-16T06:20:30;4.00;99.90
10722;DHT22;5412;59.450;18.124;2023-04-16T06:22:56;4.20;99.90
10722;DHT22;5412;59.450;18.124;2023-04-16T06:25:22;4.30;99.90
10722;DHT22;5412;59.450;18.124;2023-04-16T06:27:48;4.40;99.90
10722;DHT22;5412;59.450;18.124;2023-04-16T06:30:14;4.50;99.90
10722;DHT22;5412;59.450;18.124;2023-04-16T06:32:41;4.60;99.90
10722;DHT22;5412;59.450;18.124;2023-04-16T06:35:07;4.80;99.90
10722;DHT22;5412;59.450;18.124;2023-04-16T06:37:33;4.90;99.90
10722;DHT22;5412;59.450;18.124;2023-04-16T06:39:59;5.00;99.90
10722;DHT22;5412;59.450;18.124;2023-04-16T06:42:25;5.00;99.90
10722;DHT22;5412;59.450;18.124;2023-04-16T06:44:51;5.10;99.90
10722;DHT22;5412;59.450;18.124;2023-04-16T06:47:17;5.10;99.90
10722;DHT22;5412;59.450;18.124;2023-04-16T06:49:43;5.10;99.90
10722;DHT22;5412;59.450;18.124;2023-04-16T06:52:08;5.20;99.90
10722;DHT22;5412;59.450;18.124;2023-04-16T06:54:35;5.10;99.90
10722;DHT22;5412;59.450;18.124;2023-04-16T06:57:00;5.40;99.90
10722;DHT22;5412;59.450;18.124;2023-04-16T06:59:26;5.50;99.90
10722;DHT22;5412;59.450;18.124;2023-04-16T07:01:52;5.60;99.90
10722;DHT22;5412;59.450;18.124;2023-04-16T07:04:18;5.70;99.90
10722;DHT22;5412;59.450;18.124;2023-04-16T07:06:44;5.70;99.90
10722;DHT22;5412;59.450;18.124;2023-04-16T07:09:09;5.90;99.90
10722;DHT22;5412;59.450;18.124;2023-04-16T07:11:35;5.90;99.90
10722;DHT22;5412;59.450;18.124;2023-04-16T07:14:01;6.00;99.90
10722;DHT22;5412;59.450;18.124;2023-04-16T07:16:27;6.20;99.90
10722;DHT22;5412;59.450;18.124;2023-04-16T07:18:53;6.20;99.90
10722;DHT22;5412;59.450;18.124;2023-04-16T07:21:19;6.30;99.90
10722;DHT22;5412;59.450;18.124;2023-04-16T07:23:45;6.30;99.90
10722;DHT22;5412;59.450;18.124;2023-04-16T07:26:11;6.30;99.90
10722;DHT22;5412;59.450;18.124;2023-04-16T07:28:37;6.60;99.90
10722;DHT22;5412;59.450;18.124;2023-04-16T07:31:02;6.60;99.90
10722;DHT22;5412;59.450;18.124;2023-04-16T07:33:28;6.50;99.90
10722;DHT22;5412;59.450;18.124;2023-04-16T07:35:54;6.70;99.90
10722;DHT22;5412;59.450;18.124;2023-04-16T07:38:20;6.90;99.90
10722;DHT22;5412;59.450;18.124;2023-04-16T07:40:46;6.90;99.90
10722;DHT22;5412;59.450;18.124;2023-04-16T07:43:13;7.00;99.90
10722;DHT22;5412;59.450;18.124;2023-04-16T07:45:40;7.10;99.90
10722;DHT22;5412;59.450;18.124;2023-04-16T07:48:06;7.30;99.90
10722;DHT22;5412;59.450;18.124;2023-04-16T07:50:32;7.50;99.90
10722;DHT22;5412;59.450;18.124;2023-04-16T07:52:58;7.70;99.90
10722;DHT22;5412;59.450;18.124;2023-04-16T07:55:24;7.90;99.90
10722;DHT22;5412;59.450;18.124;2023-04-16T07:57:49;7.90;99.90
10722;DHT22;5412;59.450;18.124;2023-04-16T08:00:15;7.90;99.90
10722;DHT22;5412;59.450;18.124;2023-04-16T08:02:42;7.90;99.90
10722;DHT22;5412;59.450;18.124;2023-04-16T08:05:08;7.90;99.90
10722;DHT22;5412;59.450;18.124;2023-04-16T08:07:34;7.90;99.90
10722;DHT22;5412;59.450;18.124;2023-04-16T08:09:59;8.10;99.90
10722;DHT22;5412;59.450;18.124;2023-04-16T08:12:25;8.30;99.90
10722;DHT22;5412;59.450;18.124;2023-04-16T08:14:51;8.30;99.90
10722;DHT22;5412;59.450;18.124;2023-04-16T08:17:17;8.50;99.90
10722;DHT22;5412;59.450;18.124;2023-04-16T08:19:43;8.50;99.90
10722;DHT22;5412;59.450;18.124;2023-04-16T08:22:11;8.60;99.90
10722;DHT22;5412;59.450;18.124;2023-04-16T08:24:36;8.80;99.90
10722;DHT22;5412;59.450;18.124;2023-04-16T08:27:02;8.90;99.90
10722;DHT22;5412;59.450;18.124;2023-04-16T08:29:28;9.00;99.90
10722;DHT22;5412;59.450;18.124;2023-04-16T08:31:54;9.00;99.90
10722;DHT22;5412;59.450;18.124;2023-04-16T08:34:20;9.20;99.90
10722;DHT22;5412;59.450;18.124;2023-04-16T08:36:46;9.30;99.90
10722;DHT22;5412;59.450;18.124;2023-04-16T08:39:12;9.20;99.90
10722;DHT22;5412;59.450;18.124;2023-04-16T08:41:42;9.30;99.90
10722;DHT22;5412;59.450;18.124;2023-04-16T08:44:13;9.20;99.90
10722;DHT22;5412;59.450;18.124;2023-04-16T08:46:40;9.40;99.90
10722;DHT22;5412;59.450;18.124;2023-04-16T08:49:07;9.50;99.90
10722;DHT22;5412;59.450;18.124;2023-04-16T08:51:34;9.60;99.90
10722;DHT22;5412;59.450;18.124;2023-04-16T08:54:07;9.70;99.90
10722;DHT22;5412;59.450;18.124;2023-04-16T08:56:36;9.90;99.90
10722;DHT22;5412;59.450;18.124;2023-04-16T08:59:02;10.00;99.90
10722;DHT22;5412;59.450;18.124;2023-04-16T09:01:34;10.10;99.90
10722;DHT22;5412;59.450;18.124;2023-04-16T09:04:01;10.10;99.90
10722;DHT22;5412;59.450;18.124;2023-04-16T09:06:27;10.20;99.90
10722;DHT22;5412;59.450;18.124;2023-04-16T09:08:54;10.40;99.90
10722;DHT22;5412;59.450;18.124;2023-04-16T09:11:22;10.60;99.90
10722;DHT22;5412;59.450;18.124;2023-04-16T09:13:47;10.80;99.90
10722;DHT22;5412;59.450;18.124;2023-04-16T09:16:13;11.00;99.90
10722;DHT22;5412;59.450;18.124;2023-04-16T09:18:39;11.10;99.20
10722;DHT22;5412;59.450;18.124;2023-04-16T09:21:08;11.00;98.90
10722;DHT22;5412;59.450;18.124;2023-04-16T09:23:36;11.10;98.90
10722;DHT22;5412;59.450;18.124;2023-04-16T09:26:03;11.20;98.40
10722;DHT22;5412;59.450;18.124;2023-04-16T09:28:42;11.10;97.30
10722;DHT22;5412;59.450;18.124;2023-04-16T09:31:10;11.30;97.40
10722;DHT22;5412;59.450;18.124;2023-04-16T09:33:37;11.50;97.10
10722;DHT22;5412;59.450;18.124;2023-04-16T09:36:04;11.60;96.70
10722;DHT22;5412;59.450;18.124;2023-04-16T09:38:52;11.70;95.20
10722;DHT22;5412;59.450;18.124;2023-04-16T09:41:18;11.50;95.00
10722;DHT22;5412;59.450;18.124;2023-04-16T09:44:01;11.70;95.40
10722;DHT22;5412;59.450;18.124;2023-04-16T09:46:41;11.80;95.70
10722;DHT22;5412;59.450;18.124;2023-04-16T09:49:16;11.90;95.00
10722;DHT22;5412;59.450;18.124;2023-04-16T09:51:45;11.80;93.90
10722;DHT22;5412;59.450;18.124;2023-04-16T09:54:11;11.80;92.80
10722;DHT22;5412;59.450;18.124;2023-04-16T09:56:41;11.80;93.10
10722;DHT22;5412;59.450;18.124;2023-04-16T09:59:11;12.00;93.70
10722;DHT22;5412;59.450;18.124;2023-04-16T10:01:41;12.20;94.60
10722;DHT22;5412;59.450;18.124;2023-04-16T10:04:07;12.20;93.40
10722;DHT22;5412;59.450;18.124;2023-04-16T10:06:33;12.30;91.40
10722;DHT22;5412;59.450;18.124;2023-04-16T10:08:58;12.10;90.90
10722;DHT22;5412;59.450;18.124;2023-04-16T10:11:24;12.00;91.10
10722;DHT22;5412;59.450;18.124;2023-04-16T10:13:50;12.10;91.40
10722;DHT22;5412;59.450;18.124;2023-04-16T10:16:17;12.20;86.30
10722;DHT22;5412;59.450;18.124;2023-04-16T10:18:44;12.00;86.20
10722;DHT22;5412;59.450;18.124;2023-04-16T10:21:11;12.10;87.60
10722;DHT22;5412;59.450;18.124;2023-04-16T10:23:40;12.10;90.10
10722;DHT22;5412;59.450;18.124;2023-04-16T10:26:07;12.00;89.40
10722;DHT22;5412;59.450;18.124;2023-04-16T10:28:33;12.10;89.10
10722;DHT22;5412;59.450;18.124;2023-04-16T10:31:04;12.20;88.80
10722;DHT22;5412;59.450;18.124;2023-04-16T10:33:32;12.40;90.00
10722;DHT22;5412;59.450;18.124;2023-04-16T10:36:22;12.60;86.70
10722;DHT22;5412;59.450;18.124;2023-04-16T10:38:51;12.30;83.80
10722;DHT22;5412;59.450;18.124;2023-04-16T10:41:20;12.40;83.80
10722;DHT22;5412;59.450;18.124;2023-04-16T10:43:50;12.50;82.40
10722;DHT22;5412;59.450;18.124;2023-04-16T10:46:30;12.50;80.30
10722;DHT22;5412;59.450;18.124;2023-04-16T10:49:02;12.60;80.40
10722;DHT22;5412;59.450;18.124;2023-04-16T10:51:37;12.60;78.60
10722;DHT22;5412;59.450;18.124;2023-04-16T10:56:31;12.60;76.00
10722;DHT22;5412;59.450;18.124;2023-04-16T10:58:57;12.70;76.20
10722;DHT22;5412;59.450;18.124;2023-04-16T11:01:34;12.90;75.70
10722;DHT22;5412;59.450;18.124;2023-04-16T11:09:59;12.80;73.70
10722;DHT22;5412;59.450;18.124;2023-04-16T11:12:41;12.80;72.50
10722;DHT22;5412;59.450;18.124;2023-04-16T11:15:10;12.90;73.10
10722;DHT22;5412;59.450;18.124;2023-04-16T11:17:43;12.90;72.30
10722;DHT22;5412;59.450;18.124;2023-04-16T11:20:18;12.90;73.00
10722;DHT22;5412;59.450;18.124;2023-04-16T11:22:44;12.80;72.40
10722;DHT22;5412;59.450;18.124;2023-04-16T11:25:10;12.80;72.60
10722;DHT22;5412;59.450;18.124;2023-04-16T11:27:36;12.90;71.50
10722;DHT22;5412;59.450;18.124;2023-04-16T11:30:04;12.90;70.40
10722;DHT22;5412;59.450;18.124;2023-04-16T11:32:35;12.70;69.60
10722;DHT22;5412;59.450;18.124;2023-04-16T11:35:02;12.90;70.90
10722;DHT22;5412;59.450;18.124;2023-04-16T11:37:32;13.00;70.90
10722;DHT22;5412;59.450;18.124;2023-04-16T11:40:02;13.00;71.50
10722;DHT22;5412;59.450;18.124;2023-04-16T11:42:31;12.90;72.60
10722;DHT22;5412;59.450;18.124;2023-04-16T11:44:58;12.90;71.20
10722;DHT22;5412;59.450;18.124;2023-04-16T11:47:29;12.90;69.50
10722;DHT22;5412;59.450;18.124;2023-04-16T11:49:55;13.00;68.80
10722;DHT22;5412;59.450;18.124;2023-04-16T11:52:31;13.00;70.20
10722;DHT22;5412;59.450;18.124;2023-04-16T11:54:58;13.10;68.70
10722;DHT22;5412;59.450;18.124;2023-04-16T11:57:28;13.20;68.90
10722;DHT22;5412;59.450;18.124;2023-04-16T11:59:54;13.20;66.90
10722;DHT22;5412;59.450;18.124;2023-04-16T12:02:39;13.30;66.80
10722;DHT22;5412;59.450;18.124;2023-04-16T12:05:24;13.10;66.40
10722;DHT22;5412;59.450;18.124;2023-04-16T12:07:51;13.10;66.00
10722;DHT22;5412;59.450;18.124;2023-04-16T12:10:17;13.10;65.40
10722;DHT22;5412;59.450;18.124;2023-04-16T12:12:43;13.20;67.10
10722;DHT22;5412;59.450;18.124;2023-04-16T12:15:09;13.10;68.20
10722;DHT22;5412;59.450;18.124;2023-04-16T12:17:36;13.20;69.60
10722;DHT22;5412;59.450;18.124;2023-04-16T12:20:09;13.40;70.30
10722;DHT22;5412;59.450;18.124;2023-04-16T12:22:37;13.70;72.10
10722;DHT22;5412;59.450;18.124;2023-04-16T12:25:10;13.70;67.50
10722;DHT22;5412;59.450;18.124;2023-04-16T12:27:50;13.90;68.40
10722;DHT22;5412;59.450;18.124;2023-04-16T12:30:23;14.00;68.70
10722;DHT22;5412;59.450;18.124;2023-04-16T12:32:52;14.00;67.80
10722;DHT22;5412;59.450;18.124;2023-04-16T12:35:32;14.10;67.70
10722;DHT22;5412;59.450;18.124;2023-04-16T12:37:58;14.40;68.60
10722;DHT22;5412;59.450;18.124;2023-04-16T12:40:24;14.20;67.90
10722;DHT22;5412;59.450;18.124;2023-04-16T12:42:50;14.40;68.10
10722;DHT22;5412;59.450;18.124;2023-04-16T12:45:16;14.30;68.10
10722;DHT22;5412;59.450;18.124;2023-04-16T12:47:42;14.20;68.20
10722;DHT22;5412;59.450;18.124;2023-04-16T12:50:08;14.50;68.60
10722;DHT22;5412;59.450;18.124;2023-04-16T12:52:34;14.70;67.80
10722;DHT22;5412;59.450;18.124;2023-04-16T12:55:01;15.00;66.50
10722;DHT22;5412;59.450;18.124;2023-04-16T12:57:27;15.00;66.00
10722;DHT22;5412;59.450;18.124;2023-04-16T12:59:54;15.00;65.10
10722;DHT22;5412;59.450;18.124;2023-04-16T13:02:20;15.10;65.30
10722;DHT22;5412;59.450;18.124;2023-04-16T13:04:47;15.40;64.50
10722;DHT22;5412;59.450;18.124;2023-04-16T13:07:12;15.40;64.80
10722;DHT22;5412;59.450;18.124;2023-04-16T13:09:38;15.40;65.10
10722;DHT22;5412;59.450;18.124;2023-04-16T13:12:04;15.60;64.60
10722;DHT22;5412;59.450;18.124;2023-04-16T13:14:30;15.70;63.60
10722;DHT22;5412;59.450;18.124;2023-04-16T13:16:56;16.00;62.50
10722;DHT22;5412;59.450;18.124;2023-04-16T13:19:21;16.00;61.40
10722;DHT22;5412;59.450;18.124;2023-04-16T13:21:47;16.50;60.70
10722;DHT22;5412;59.450;18.124;2023-04-16T13:24:13;16.00;60.40
10722;DHT22;5412;59.450;18.124;2023-04-16T13:26:38;16.20;61.60
10722;DHT22;5412;59.450;18.124;2023-04-16T13:29:04;16.40;61.20
10722;DHT22;5412;59.450;18.124;2023-04-16T13:31:30;16.70;59.40
10722;DHT22;5412;59.450;18.124;2023-04-16T13:33:56;17.20;58.80
10722;DHT22;5412;59.450;18.124;2023-04-16T13:36:22;17.20;58.30
10722;DHT22;5412;59.450;18.124;2023-04-16T13:38:47;17.00;58.90
10722;DHT22;5412;59.450;18.124;2023-04-16T13:41:13;17.40;58.80
10722;DHT22;5412;59.450;18.124;2023-04-16T13:43:39;17.70;58.00
10722;DHT22;5412;59.450;18.124;2023-04-16T13:46:04;18.10;57.40
10722;DHT22;5412;59.450;18.124;2023-04-16T13:48:30;18.10;57.20
10722;DHT22;5412;59.450;18.124;2023-04-16T13:50:57;17.70;56.50
10722;DHT22;5412;59.450;18.124;2023-04-16T13:53:22;18.30;55.90
10722;DHT22;5412;59.450;18.124;2023-04-16T13:55:48;17.80;54.90
10722;DHT22;5412;59.450;18.124;2023-04-16T13:58:14;17.80;54.00
10722;DHT22;5412;59.450;18.124;2023-04-16T14:00:41;17.60;53.90
10722;DHT22;5412;59.450;18.124;2023-04-16T14:03:07;17.40;53.90
10722;DHT22;5412;59.450;18.124;2023-04-16T14:05:33;17.10;54.00
10722;DHT22;5412;59.450;18.124;2023-04-16T14:07:59;17.90;54.40
10722;DHT22;5412;59.450;18.124;2023-04-16T14:10:24;18.60;54.00
10722;DHT22;5412;59.450;18.124;2023-04-16T14:12:50;19.00;53.20
10722;DHT22;5412;59.450;18.124;2023-04-16T14:15:16;18.90;52.40
10722;DHT22;5412;59.450;18.124;2023-04-16T14:17:43;19.00;51.90
10722;DHT22;5412;59.450;18.124;2023-04-16T14:20:11;19.40;51.90
10722;DHT22;5412;59.450;18.124;2023-04-16T14:22:37;19.50;51.50
10722;DHT22;5412;59.450;18.124;2023-04-16T14:25:03;19.40;50.80
10722;DHT22;5412;59.450;18.124;2023-04-16T14:27:29;19.40;50.20
10722;DHT22;5412;59.450;18.124;2023-04-16T14:29:55;19.90;50.80
10722;DHT22;5412;59.450;18.124;2023-04-16T14:32:21;19.90;50.00
10722;DHT22;5412;59.450;18.124;2023-04-16T14:34:47;20.30;50.00
10722;DHT22;5412;59.450;18.124;2023-04-16T14:37:15;20.20;49.50
10722;DHT22;5412;59.450;18.124;2023-04-16T14:39:41;20.20;48.60
10722;DHT22;5412;59.450;18.124;2023-04-16T14:42:07;20.10;48.50
10722;DHT22;5412;59.450;18.124;2023-04-16T14:44:33;20.40;48.90
10722;DHT22;5412;59.450;18.124;2023-04-16T14:46:59;20.70;48.30
10722;DHT22;5412;59.450;18.124;2023-04-16T14:49:25;21.20;47.70
10722;DHT22;5412;59.450;18.124;2023-04-16T14:51:51;21.40;47.50
10722;DHT22;5412;59.450;18.124;2023-04-16T14:54:17;20.70;47.00
10722;DHT22;5412;59.450;18.124;2023-04-16T14:56:44;20.60;46.90
10722;DHT22;5412;59.450;18.124;2023-04-16T14:59:10;20.60;47.00
10722;DHT22;5412;59.450;18.124;2023-04-16T15:01:36;21.30;47.10
10722;DHT22;5412;59.450;18.124;2023-04-16T15:04:04;21.20;46.50
10722;DHT22;5412;59.450;18.124;2023-04-16T15:06:32;21.70;46.30
10722;DHT22;5412;59.450;18.124;2023-04-16T15:08:58;22.10;45.20
10722;DHT22;5412;59.450;18.124;2023-04-16T15:11:24;21.60;44.80
10722;DHT22;5412;59.450;18.124;2023-04-16T15:13:50;21.40;45.30
10722;DHT22;5412;59.450;18.124;2023-04-16T15:16:16;22.10;44.90
10722;DHT22;5412;59.450;18.124;2023-04-16T15:18:42;21.80;44.20
10722;DHT22;5412;59.450;18.124;2023-04-16T15:21:08;21.30;44.60
10722;DHT22;5412;59.450;18.124;2023-04-16T15:23:33;21.80;44.10
10722;DHT22;5412;59.450;18.124;2023-04-16T15:25:59;21.90;44.10
10722;DHT22;5412;59.450;18.124;2023-04-16T15:28:25;21.10;44.10
10722;DHT22;5412;59.450;18.124;2023-04-16T15:30:51;19.30;45.40
10722;DHT22;5412;59.450;18.124;2023-04-16T15:33:20;18.50;47.00
10722;DHT22;5412;59.450;18.124;2023-04-16T15:35:45;17.40;48.10
10722;DHT22;5412;59.450;18.124;2023-04-16T15:38:11;16.70;49.20
10722;DHT22;5412;59.450;18.124;2023-04-16T15:40:37;16.30;49.90
10722;DHT22;5412;59.450;18.124;2023-04-16T15:43:03;15.60;50.60
10722;DHT22;5412;59.450;18.124;2023-04-16T15:45:30;15.00;51.50
10722;DHT22;5412;59.450;18.124;2023-04-16T15:47:56;14.20;52.40